createdAt,value
2018-10-04T00:01:10.380Z,93.00
2018-10-04T00:03:38.889Z,93.10
2018-10-04T00:06:07.629Z,93.10
2018-10-04T00:08:36.250Z,93.20
2018-10-04T00:11:04.970Z,93.20
2018-10-04T00:13:33.494Z,93.30
2018-10-04T00:16:02.041Z,93.30
2018-10-04T00:18:30.769Z,93.40
2018-10-04T00:20:59.374Z,93.40
2018-10-04T00:23:28.000Z,93.70
2018-10-04T00:25:56.725Z,93.50
2018-10-04T00:28:25.327Z,93.60
2018-10-04T00:30:54.065Z,93.70
2018-10-04T00:33:22.665Z,93.70
2018-10-04T00:35:51.376Z,93.70
2018-10-04T00:38:19.994Z,93.80
2018-10-04T00:40:48.773Z,93.80
2018-10-04T00:43:17.409Z,93.90
2018-10-04T00:45:46.053Z,93.90
2018-10-04T00:48:14.679Z,93.90
2018-10-04T00:50:51.355Z,94.00
2018-10-04T00:53:28.114Z,94.00
2018-10-04T00:56:03.860Z,94.00
2018-10-04T00:58:39.632Z,94.00
2018-10-04T01:01:08.268Z,94.10
2018-10-04T01:03:36.807Z,94.10
2018-10-04T01:06:05.514Z,94.40
2018-10-04T01:08:41.425Z,94.20
2018-10-04T01:11:17.997Z,94.30
2018-10-04T01:13:53.813Z,94.30
2018-10-04T01:16:30.465Z,94.30
2018-10-04T01:19:00.309Z,94.40
2018-10-04T01:21:28.882Z,94.40
2018-10-04T01:23:57.533Z,94.50
2018-10-04T01:26:26.113Z,94.60
2018-10-04T01:28:54.852Z,94.60
2018-10-04T01:31:24.234Z,94.60
2018-10-04T01:33:52.752Z,94.70
2018-10-04T01:36:21.355Z,94.70
2018-10-04T01:38:49.924Z,94.80
2018-10-04T01:41:18.500Z,94.80
2018-10-04T01:43:47.143Z,94.80
2018-10-04T01:46:15.821Z,94.90
2018-10-04T01:48:44.473Z,95.00
2018-10-04T01:51:13.097Z,95.00
2018-10-04T01:53:41.688Z,95.10
2018-10-04T01:56:10.373Z,95.00
2018-10-04T01:58:38.985Z,95.10
2018-10-04T02:01:07.510Z,95.20
2018-10-04T02:03:36.072Z,95.20
2018-10-04T02:06:04.679Z,95.30
2018-10-04T02:08:34.204Z,95.30
2018-10-04T02:11:02.764Z,95.30
2018-10-04T02:13:31.479Z,95.40
2018-10-04T02:16:00.076Z,95.40
2018-10-04T02:18:28.844Z,95.50
2018-10-04T02:20:57.605Z,95.70
2018-10-04T02:23:26.261Z,95.50
2018-10-04T02:25:54.805Z,95.50
2018-10-04T02:28:23.665Z,95.60
2018-10-04T02:30:52.474Z,95.70
2018-10-04T02:33:21.052Z,95.60
2018-10-04T02:35:49.665Z,95.70
2018-10-04T02:38:18.445Z,95.70
2018-10-04T02:40:47.474Z,95.70
2018-10-04T02:43:17.199Z,95.80
2018-10-04T02:45:45.774Z,95.80
2018-10-04T02:48:14.346Z,95.80
2018-10-04T02:50:43.096Z,95.90
2018-10-04T02:53:11.733Z,95.90
2018-10-04T02:55:45.586Z,96.00
2018-10-04T02:58:14.194Z,96.00
2018-10-04T03:00:42.797Z,96.10
2018-10-04T03:03:11.347Z,96.10
2018-10-04T03:05:39.974Z,96.10
2018-10-04T03:08:08.875Z,96.10
2018-10-04T03:10:37.516Z,96.10
2018-10-04T03:13:06.176Z,96.20
2018-10-04T03:15:35.512Z,96.20
2018-10-04T03:18:04.130Z,96.30
2018-10-04T03:20:32.755Z,96.30
2018-10-04T03:23:01.347Z,96.40
2018-10-04T03:25:29.849Z,96.40
2018-10-04T03:27:58.545Z,96.40
2018-10-04T03:30:27.220Z,96.30
2018-10-04T03:32:55.920Z,96.40
2018-10-04T03:35:24.542Z,96.50
2018-10-04T03:37:53.277Z,96.50
2018-10-04T03:40:21.899Z,96.50
2018-10-04T03:42:50.456Z,96.60
2018-10-04T03:45:19.155Z,96.70
2018-10-04T03:47:47.724Z,96.70
2018-10-04T03:50:16.244Z,96.80
2018-10-04T03:52:44.875Z,96.80
2018-10-04T03:55:13.555Z,96.90
2018-10-04T03:57:42.180Z,96.90
2018-10-04T04:00:10.767Z,96.90
2018-10-04T04:02:39.309Z,96.90
2018-10-04T04:05:07.921Z,97.00
2018-10-04T04:07:36.442Z,97.00
2018-10-04T04:10:05.376Z,97.00
2018-10-04T04:12:33.901Z,97.00
2018-10-04T04:15:02.500Z,97.20
2018-10-04T04:17:31.114Z,97.20
2018-10-04T04:19:59.742Z,97.30
2018-10-04T04:22:28.460Z,97.20
2018-10-04T04:24:57.241Z,97.30
2018-10-04T04:27:25.780Z,97.20
2018-10-04T04:29:54.357Z,97.30
2018-10-04T04:32:22.965Z,97.40
2018-10-04T04:34:51.536Z,97.40
2018-10-04T04:37:20.244Z,97.50
2018-10-04T04:39:48.964Z,97.40
2018-10-04T04:42:18.162Z,97.50
2018-10-04T04:44:46.740Z,97.50
2018-10-04T04:47:15.340Z,97.50
2018-10-04T04:49:44.801Z,97.50
2018-10-04T04:52:13.350Z,97.60
2018-10-04T04:55:45.238Z,97.50
2018-10-04T04:58:15.096Z,97.60
2018-10-04T05:00:45.113Z,97.50
2018-10-04T05:03:13.826Z,97.60
2018-10-04T05:05:42.599Z,97.70
2018-10-04T05:08:11.700Z,97.90
2018-10-04T05:10:40.330Z,97.80
2018-10-04T05:13:09.894Z,97.80
2018-10-04T05:15:38.587Z,97.80
2018-10-04T05:18:07.322Z,97.90
2018-10-04T05:20:35.953Z,97.90
2018-10-04T05:23:04.785Z,98.00
2018-10-04T05:25:33.391Z,98.00
2018-10-04T05:28:02.022Z,98.00
2018-10-04T05:30:30.763Z,98.00
2018-10-04T05:32:59.504Z,98.10
2018-10-04T05:35:28.208Z,98.10
2018-10-04T05:37:56.801Z,98.10
2018-10-04T05:40:25.549Z,98.20
2018-10-04T05:42:54.169Z,98.20
2018-10-04T05:45:23.534Z,98.10
2018-10-04T05:47:52.070Z,98.20
2018-10-04T05:50:20.742Z,98.40
2018-10-04T05:52:49.595Z,98.60
2018-10-04T05:55:18.179Z,98.70
2018-10-04T05:57:46.832Z,98.70
2018-10-04T06:00:28.341Z,98.80
2018-10-04T06:02:56.981Z,98.80
2018-10-04T06:05:25.741Z,98.80
2018-10-04T06:07:54.365Z,98.80
2018-10-04T06:10:22.928Z,98.80
2018-10-04T06:12:51.568Z,98.80
2018-10-04T06:15:20.348Z,98.90
2018-10-04T06:17:49.080Z,98.90
2018-10-04T06:20:17.996Z,98.90
2018-10-04T06:22:46.657Z,99.40
2018-10-04T06:25:15.376Z,99.60
2018-10-04T06:27:44.781Z,99.60
2018-10-04T06:30:13.642Z,99.60
2018-10-04T06:32:42.517Z,99.70
2018-10-04T06:35:11.411Z,99.90
2018-10-04T06:37:41.045Z,99.80
2018-10-04T06:40:09.987Z,99.90
2018-10-04T06:42:38.644Z,99.80
2018-10-04T06:45:07.522Z,99.80
2018-10-04T06:47:36.230Z,99.80
2018-10-04T06:50:05.133Z,99.80
2018-10-04T06:52:33.756Z,99.90
2018-10-04T06:55:02.366Z,99.90
2018-10-04T06:57:30.937Z,99.90
2018-10-04T06:59:59.534Z,99.90
2018-10-04T07:02:28.237Z,99.90
2018-10-04T07:04:57.527Z,99.90
2018-10-04T07:07:26.299Z,99.90
2018-10-04T07:09:54.920Z,99.90
2018-10-04T07:12:23.661Z,99.90
2018-10-04T07:14:52.272Z,99.90
2018-10-04T07:17:21.630Z,99.90
2018-10-04T07:19:50.384Z,99.90
2018-10-04T07:22:19.014Z,99.90
2018-10-04T07:24:48.313Z,99.90
2018-10-04T07:27:17.599Z,99.90
2018-10-04T07:29:46.208Z,99.90
2018-10-04T07:32:14.886Z,99.90
2018-10-04T07:34:43.590Z,99.90
2018-10-04T07:37:12.372Z,99.90
2018-10-04T07:39:41.167Z,99.90
2018-10-04T07:42:09.891Z,99.90
2018-10-04T07:44:39.111Z,99.90
2018-10-04T07:47:08.493Z,99.90
2018-10-04T07:49:37.135Z,99.90
2018-10-04T07:52:05.849Z,99.90
2018-10-04T07:54:35.292Z,99.90
2018-10-04T07:57:04.073Z,99.90
2018-10-04T07:59:33.011Z,99.90
2018-10-04T08:02:01.633Z,99.90
2018-10-04T08:04:30.525Z,99.90
2018-10-04T08:06:59.252Z,99.90
2018-10-04T08:09:27.958Z,99.90
2018-10-04T08:11:56.692Z,99.80
2018-10-04T08:14:25.335Z,99.80
2018-10-04T08:16:54.068Z,99.90
2018-10-04T08:19:22.900Z,99.90
2018-10-04T08:21:51.531Z,99.90
2018-10-04T08:24:20.223Z,99.90
2018-10-04T08:26:48.950Z,99.90
2018-10-04T08:29:17.805Z,99.90
2018-10-04T08:31:46.447Z,99.90
2018-10-04T08:34:15.971Z,99.90
2018-10-04T08:36:44.618Z,99.90
2018-10-04T08:39:13.255Z,99.90
2018-10-04T08:41:42.000Z,99.90
2018-10-04T08:44:10.746Z,99.90
2018-10-04T08:46:39.401Z,99.90
2018-10-04T08:49:08.175Z,99.90
2018-10-04T08:51:42.281Z,99.90
2018-10-04T08:54:11.063Z,99.90
2018-10-04T08:56:39.772Z,99.90
2018-10-04T08:59:08.565Z,99.90
2018-10-04T09:01:37.275Z,99.90
2018-10-04T09:04:06.022Z,99.90
2018-10-04T09:06:34.645Z,99.90
2018-10-04T09:09:03.445Z,99.90
2018-10-04T09:11:32.178Z,99.90
2018-10-04T09:14:00.945Z,99.90
2018-10-04T09:16:29.643Z,99.90
2018-10-04T09:18:59.206Z,99.90
2018-10-04T09:21:27.944Z,99.90
2018-10-04T09:23:57.540Z,99.90
2018-10-04T09:26:26.308Z,99.90
2018-10-04T09:29:00.341Z,99.90
2018-10-04T09:31:30.334Z,99.90
2018-10-04T09:33:59.010Z,99.90
2018-10-04T09:36:28.219Z,99.90
2018-10-04T09:38:57.048Z,99.90
2018-10-04T09:41:26.109Z,99.90
2018-10-04T09:43:55.133Z,99.90
2018-10-04T09:46:23.881Z,99.90
2018-10-04T09:48:52.601Z,99.90
2018-10-04T09:51:26.434Z,99.90
2018-10-04T09:53:57.641Z,99.90
2018-10-04T09:56:31.686Z,99.60
2018-10-04T09:59:01.817Z,99.20
2018-10-04T10:01:35.938Z,99.00
2018-10-04T10:04:05.713Z,99.30
2018-10-04T10:06:34.533Z,98.90
2018-10-04T10:09:04.897Z,99.00
2018-10-04T10:11:33.801Z,99.40
2018-10-04T10:14:02.531Z,99.30
2018-10-04T10:16:31.305Z,99.30
2018-10-04T10:18:59.959Z,98.80
2018-10-04T10:21:29.298Z,98.90
2018-10-04T10:23:58.038Z,99.10
2018-10-04T10:26:26.767Z,99.40
2018-10-04T10:28:55.488Z,99.90
2018-10-04T10:31:24.132Z,99.90
2018-10-04T10:33:52.806Z,99.90
2018-10-04T10:36:21.472Z,99.90
2018-10-04T10:38:50.156Z,99.90
2018-10-04T10:41:18.811Z,99.50
2018-10-04T10:43:47.451Z,99.50
2018-10-04T10:46:16.274Z,99.50
2018-10-04T10:48:45.021Z,99.70
2018-10-04T10:51:13.650Z,99.20
2018-10-04T10:53:43.076Z,99.20
2018-10-04T10:56:11.920Z,99.60
2018-10-04T10:58:40.566Z,99.30
2018-10-04T11:01:09.232Z,99.60
2018-10-04T11:03:37.803Z,98.60
2018-10-04T11:06:06.570Z,98.80
2018-10-04T11:08:35.381Z,98.50
2018-10-04T11:11:03.987Z,99.00
2018-10-04T11:13:32.586Z,98.60
2018-10-04T11:16:01.158Z,98.40
2018-10-04T11:18:29.732Z,98.10
2018-10-04T11:20:58.420Z,97.10
2018-10-04T11:23:27.318Z,97.30
2018-10-04T11:25:56.065Z,96.40
2018-10-04T11:28:24.735Z,96.70
2018-10-04T11:30:53.401Z,96.90
2018-10-04T11:33:22.118Z,96.40
2018-10-04T11:35:50.788Z,97.10
2018-10-04T11:38:19.563Z,97.00
2018-10-04T11:40:48.353Z,96.30
2018-10-04T11:43:19.391Z,96.30
2018-10-04T11:45:48.173Z,96.30
2018-10-04T11:48:19.699Z,95.60
2018-10-04T11:50:48.398Z,95.70
2018-10-04T11:53:17.178Z,95.70
2018-10-04T11:55:45.982Z,95.40
2018-10-04T11:58:15.269Z,95.80
2018-10-04T12:00:44.024Z,97.20
2018-10-04T12:03:13.032Z,97.10
2018-10-04T12:05:41.767Z,96.30
2018-10-04T12:08:10.474Z,97.50
2018-10-04T12:10:39.258Z,96.60
2018-10-04T12:13:08.132Z,96.20
2018-10-04T12:15:36.753Z,97.40
2018-10-04T12:18:05.464Z,96.30
2018-10-04T12:20:34.140Z,97.70
2018-10-04T12:23:02.948Z,97.40
2018-10-04T12:25:31.753Z,95.60
2018-10-04T12:28:00.515Z,96.30
2018-10-04T12:30:29.161Z,97.40
2018-10-04T12:32:57.934Z,99.90
2018-10-04T12:35:26.690Z,99.90
2018-10-04T12:37:55.425Z,97.20
2018-10-04T12:40:24.127Z,94.50
2018-10-04T12:42:53.127Z,93.50
2018-10-04T12:45:21.786Z,95.40
2018-10-04T12:47:50.389Z,94.90
2018-10-04T12:50:19.200Z,95.40
2018-10-04T12:52:47.952Z,94.60
2018-10-04T12:55:16.614Z,93.70
2018-10-04T12:57:45.303Z,93.00
2018-10-04T13:00:14.066Z,93.30
2018-10-04T13:02:42.778Z,94.00
2018-10-04T13:05:11.477Z,96.00
2018-10-04T13:07:40.309Z,97.10
2018-10-04T13:10:09.021Z,95.50
2018-10-04T13:12:37.716Z,94.60
2018-10-04T13:15:07.617Z,93.10
2018-10-04T13:17:36.340Z,93.00
2018-10-04T13:20:05.035Z,92.70
2018-10-04T13:22:33.799Z,93.00
2018-10-04T13:25:03.468Z,93.30
2018-10-04T13:27:32.171Z,94.20
2018-10-04T13:30:00.956Z,93.30
2018-10-04T13:32:29.592Z,93.10
2018-10-04T13:34:58.360Z,92.90
2018-10-04T13:37:27.112Z,93.80
2018-10-04T13:39:55.876Z,93.20
2018-10-04T13:42:24.530Z,94.30
2018-10-04T13:44:53.320Z,93.40
2018-10-04T13:47:21.953Z,93.80
2018-10-04T13:49:50.781Z,95.60
2018-10-04T13:52:19.498Z,93.60
2018-10-04T13:54:48.196Z,92.50
2018-10-04T13:57:16.975Z,92.10
2018-10-04T13:59:45.713Z,91.90
2018-10-04T14:02:14.579Z,92.40
2018-10-04T14:04:43.390Z,94.40
2018-10-04T14:07:12.220Z,92.80
2018-10-04T14:09:40.893Z,92.70
2018-10-04T14:12:09.660Z,92.60
2018-10-04T14:14:38.394Z,92.40
2018-10-04T14:17:07.062Z,92.70
2018-10-04T14:19:35.853Z,93.00
2018-10-04T14:22:04.780Z,93.40
2018-10-04T14:24:33.495Z,93.80
2018-10-04T14:27:02.232Z,94.40
2018-10-04T14:29:32.003Z,93.20
2018-10-04T14:32:00.735Z,92.90
2018-10-04T14:34:29.407Z,93.50
2018-10-04T14:36:58.000Z,93.10
2018-10-04T14:39:26.938Z,92.80
2018-10-04T14:41:55.575Z,93.40
2018-10-04T14:44:24.541Z,92.70
2018-10-04T14:46:53.298Z,92.80
2018-10-04T14:49:22.056Z,92.80
2018-10-04T14:51:50.887Z,92.60
2018-10-04T14:54:20.234Z,92.80
2018-10-04T14:56:49.399Z,92.80
2018-10-04T14:59:18.056Z,92.60
2018-10-04T15:01:47.211Z,92.70
2018-10-04T15:04:15.932Z,93.00
2018-10-04T15:06:44.635Z,92.90
2018-10-04T15:09:13.355Z,92.80
2018-10-04T15:11:42.245Z,93.20
2018-10-04T15:14:11.561Z,93.00
2018-10-04T15:16:40.241Z,92.70
2018-10-04T15:19:10.003Z,93.00
2018-10-04T15:21:38.655Z,92.30
2018-10-04T15:24:07.505Z,92.20
2018-10-04T15:26:36.043Z,92.70
2018-10-04T15:29:04.878Z,92.80
2018-10-04T15:31:33.539Z,93.00
2018-10-04T15:34:02.296Z,93.00
2018-10-04T15:36:31.914Z,93.60
2018-10-04T15:39:00.797Z,94.60
2018-10-04T15:41:29.501Z,93.90
2018-10-04T15:43:58.363Z,93.60
2018-10-04T15:46:26.999Z,93.60
2018-10-04T15:48:55.659Z,94.10
2018-10-04T15:51:24.314Z,93.60
2018-10-04T15:53:52.954Z,93.20
2018-10-04T15:56:21.613Z,93.40
2018-10-04T15:58:50.443Z,93.30
2018-10-04T16:01:19.228Z,93.00
2018-10-04T16:03:48.662Z,92.70
2018-10-04T16:06:17.379Z,92.20
2018-10-04T16:08:46.214Z,92.10
2018-10-04T16:11:14.994Z,92.10
2018-10-04T16:13:43.908Z,92.30
2018-10-04T16:16:12.905Z,92.20
2018-10-04T16:18:41.836Z,92.10
2018-10-04T16:21:10.561Z,92.20
2018-10-04T16:23:39.481Z,92.30
2018-10-04T16:26:08.670Z,92.30
2018-10-04T16:28:37.280Z,92.40
2018-10-04T16:31:06.061Z,92.50
2018-10-04T16:33:34.855Z,92.50
2018-10-04T16:36:03.584Z,92.60
2018-10-04T16:38:32.334Z,92.60
2018-10-04T16:41:01.050Z,92.70
2018-10-04T16:43:30.066Z,92.70
2018-10-04T16:45:58.929Z,92.70
2018-10-04T16:48:28.275Z,92.80
2018-10-04T16:50:56.850Z,92.80
2018-10-04T16:53:25.749Z,92.90
2018-10-04T16:55:55.467Z,92.90
2018-10-04T16:58:24.785Z,93.00
2018-10-04T17:00:53.745Z,93.00
2018-10-04T17:03:22.736Z,93.10
2018-10-04T17:05:52.207Z,93.00
2018-10-04T17:08:21.123Z,93.20
2018-10-04T17:10:50.626Z,93.20
2018-10-04T17:13:19.774Z,93.30
2018-10-04T17:15:48.978Z,93.40
2018-10-04T17:18:19.073Z,93.40
2018-10-04T17:20:48.220Z,93.50
2018-10-04T17:23:16.899Z,93.50
2018-10-04T17:25:46.062Z,93.50
2018-10-04T17:28:14.837Z,93.50
2018-10-04T17:30:44.930Z,93.60
2018-10-04T17:33:13.656Z,93.60
2018-10-04T17:35:44.896Z,93.70
2018-10-04T17:38:15.028Z,93.70
2018-10-04T17:40:44.126Z,93.80
2018-10-04T17:43:13.382Z,93.80
2018-10-04T17:45:42.130Z,93.90
2018-10-04T17:48:10.881Z,94.00
2018-10-04T17:50:39.829Z,94.10
2018-10-04T17:53:08.465Z,94.10
2018-10-04T17:55:37.448Z,94.10
2018-10-04T17:58:06.440Z,94.20
2018-10-04T18:00:37.288Z,94.10
2018-10-04T18:03:06.213Z,94.20
2018-10-04T18:05:35.181Z,94.30
2018-10-04T18:08:04.225Z,94.40
2018-10-04T18:10:34.101Z,94.50
2018-10-04T18:13:02.881Z,94.60
2018-10-04T18:15:31.694Z,94.70
2018-10-04T18:18:01.222Z,94.60
2018-10-04T18:20:30.695Z,94.70
2018-10-04T18:22:59.653Z,94.80
2018-10-04T18:25:28.871Z,94.80
2018-10-04T18:27:58.136Z,95.00
2018-10-04T18:30:27.254Z,95.00
2018-10-04T18:32:56.541Z,95.00
2018-10-04T18:35:25.253Z,95.10
2018-10-04T18:37:54.294Z,95.20
2018-10-04T18:40:23.284Z,95.30
2018-10-04T18:42:52.861Z,95.30
2018-10-04T18:45:21.779Z,95.40
2018-10-04T18:47:51.645Z,95.50
2018-10-04T18:50:20.411Z,95.60
2018-10-04T18:52:50.053Z,95.60
2018-10-04T18:55:19.251Z,95.60
2018-10-04T18:57:49.507Z,95.60
2018-10-04T19:00:18.241Z,95.70
2018-10-04T19:02:48.030Z,95.80
2018-10-04T19:05:16.984Z,95.80
2018-10-04T19:07:45.988Z,95.90
2018-10-04T19:10:14.957Z,96.00
2018-10-04T19:12:44.463Z,96.00
2018-10-04T19:15:13.145Z,96.10
2018-10-04T19:17:48.574Z,96.10
2018-10-04T19:20:17.298Z,96.20
2018-10-04T19:22:46.794Z,96.40
2018-10-04T19:25:15.850Z,96.30
2018-10-04T19:27:44.597Z,96.20
2018-10-04T19:30:13.585Z,96.20
2018-10-04T19:32:42.785Z,96.10
2018-10-04T19:35:12.742Z,96.30
2018-10-04T19:37:42.225Z,96.30
2018-10-04T19:40:11.781Z,96.50
2018-10-04T19:42:40.535Z,96.50
2018-10-04T19:45:09.447Z,96.60
2018-10-04T19:47:38.454Z,96.50
2018-10-04T19:50:08.823Z,96.60
2018-10-04T19:52:38.422Z,96.60
2018-10-04T19:55:07.309Z,96.70
2018-10-04T19:57:36.421Z,96.70
2018-10-04T20:00:06.292Z,96.80
2018-10-04T20:02:34.998Z,96.80
2018-10-04T20:05:03.755Z,96.80
2018-10-04T20:07:33.088Z,96.80
2018-10-04T20:10:02.196Z,96.80
2018-10-04T20:12:30.911Z,97.00
2018-10-04T20:14:59.779Z,96.90
2018-10-04T20:17:28.356Z,96.90
2018-10-04T20:19:57.016Z,97.00
2018-10-04T20:22:25.651Z,97.00
2018-10-04T20:24:55.167Z,97.00
2018-10-04T20:27:24.008Z,97.10
2018-10-04T20:29:52.614Z,97.20
2018-10-04T20:32:23.372Z,97.20
2018-10-04T20:34:52.109Z,97.20
2018-10-04T20:37:21.382Z,97.20
2018-10-04T20:39:50.097Z,97.30
2018-10-04T20:42:19.762Z,97.30
2018-10-04T20:44:48.423Z,97.30
2018-10-04T20:47:17.093Z,97.40
2018-10-04T20:49:45.650Z,97.40
2018-10-04T20:52:14.278Z,97.40
2018-10-04T20:54:43.056Z,97.40
2018-10-04T20:57:11.702Z,97.40
2018-10-04T20:59:40.451Z,97.40
2018-10-04T21:02:09.296Z,97.50
2018-10-04T21:04:37.958Z,97.50
2018-10-04T21:07:07.358Z,97.50
2018-10-04T21:09:36.159Z,97.50
2018-10-04T21:12:05.273Z,97.50
2018-10-04T21:14:34.178Z,97.70
2018-10-04T21:17:03.120Z,97.80
2018-10-04T21:19:31.796Z,97.80
2018-10-04T21:22:00.434Z,97.80
2018-10-04T21:24:30.471Z,97.70
2018-10-04T21:26:59.410Z,97.80
2018-10-04T21:29:28.142Z,97.80
2018-10-04T21:31:56.946Z,97.80
2018-10-04T21:34:25.647Z,97.80
2018-10-04T21:36:54.898Z,97.80
2018-10-04T21:39:23.673Z,97.80
2018-10-04T21:41:52.451Z,97.80
2018-10-04T21:44:21.115Z,98.10
2018-10-04T21:46:50.021Z,98.00
2018-10-04T21:49:18.802Z,98.00
2018-10-04T21:51:47.713Z,98.10
2018-10-04T21:54:16.591Z,98.20
2018-10-04T21:56:45.390Z,98.20
2018-10-04T21:59:14.157Z,98.20
2018-10-04T22:01:42.978Z,98.10
2018-10-04T22:04:11.837Z,98.40
2018-10-04T22:06:40.478Z,98.20
2018-10-04T22:09:10.135Z,98.20
2018-10-04T22:11:39.550Z,98.20
2018-10-04T22:14:08.624Z,98.40
2018-10-04T22:16:37.294Z,98.30
2018-10-04T22:19:05.886Z,98.30
2018-10-04T22:21:34.891Z,98.30
2018-10-04T22:24:03.791Z,98.30
2018-10-04T22:26:32.567Z,98.30
2018-10-04T22:29:01.219Z,98.30
2018-10-04T22:31:29.855Z,98.30
2018-10-04T22:33:58.552Z,98.10
2018-10-04T22:36:27.178Z,98.00
2018-10-04T22:38:55.780Z,98.00
2018-10-04T22:41:24.445Z,98.00
2018-10-04T22:43:53.191Z,98.00
2018-10-04T22:46:21.838Z,98.10
2018-10-04T22:48:50.373Z,98.10
2018-10-04T22:51:18.988Z,98.10
2018-10-04T22:53:47.596Z,98.10
2018-10-04T22:56:16.202Z,98.10
2018-10-04T22:58:44.820Z,98.10
2018-10-04T23:01:13.849Z,98.10
2018-10-04T23:03:42.460Z,98.20
2018-10-04T23:06:11.128Z,98.40
2018-10-04T23:08:39.781Z,98.10
2018-10-04T23:11:08.341Z,98.20
2018-10-04T23:13:37.341Z,98.20
2018-10-04T23:16:05.915Z,98.20
2018-10-04T23:18:34.473Z,98.30
2018-10-04T23:21:03.091Z,98.30
2018-10-04T23:23:31.762Z,98.30
2018-10-04T23:26:00.589Z,98.20
2018-10-04T23:28:29.140Z,98.20
2018-10-04T23:30:57.700Z,98.30
2018-10-04T23:33:26.406Z,98.30
2018-10-04T23:35:55.262Z,98.30
2018-10-04T23:38:23.939Z,98.40
2018-10-04T23:40:52.542Z,98.40
2018-10-04T23:43:21.152Z,98.50
2018-10-04T23:45:50.079Z,98.50
2018-10-04T23:48:18.638Z,98.50
2018-10-04T23:50:47.396Z,98.50
2018-10-04T23:53:16.060Z,98.50
2018-10-04T23:55:44.670Z,98.50
2018-10-04T23:58:13.264Z,98.50
